Time;durP1;ratioP1;P1;durP2;ratioP2;P2;SDS_P1;SDS_P2;PMS_P1;PMS_P2;Temp;Humidity;BMP_temperature;BMP_pressure;BME280_temperature;BME280_humidity;BME280_pressure;Samples;Min_cycle;Max_cycle;Signal;HPM_P1;HPM_P2
2021/07/23 00:01:09;;;;;;;10.63;8.38;;;14.80;98.90;;;;;;4858972;29;20495;-76
2021/07/23 00:03:36;;;;;;;9.82;7.93;;;14.80;99.00;;;;;;4889082;29;20654;-76
2021/07/23 00:06:02;;;;;;;10.77;8.80;;;14.80;99.00;;;;;;4894424;29;20044;-75
2021/07/23 00:08:28;;;;;;;13.38;9.13;;;14.80;99.00;;;;;;4891353;29;20048;-76
2021/07/23 00:10:54;;;;;;;16.48;9.00;;;14.90;99.00;;;;;;4908475;29;20048;-75
2021/07/23 00:13:20;;;;;;;12.05;8.93;;;14.90;99.10;;;;;;4894686;29;20059;-76
2021/07/23 00:15:46;;;;;;;9.13;8.00;;;14.90;99.10;;;;;;4861100;29;20044;-76
2021/07/23 00:18:11;;;;;;;10.30;8.23;;;14.90;99.10;;;;;;4892958;29;20661;-76
2021/07/23 00:20:37;;;;;;;11.02;8.48;;;15.00;99.20;;;;;;4877419;29;20453;-76
2021/07/23 00:23:03;;;;;;;12.18;8.45;;;15.10;99.30;;;;;;4877953;29;20502;-76
2021/07/23 00:25:32;;;;;;;12.68;9.13;;;15.00;99.00;;;;;;4880550;29;20051;-76
2021/07/23 00:27:58;;;;;;;13.48;8.55;;;15.10;99.10;;;;;;4880419;29;20036;-76
2021/07/23 00:30:24;;;;;;;11.02;8.55;;;15.10;99.20;;;;;;4861368;29;20091;-76
2021/07/23 00:32:49;;;;;;;11.15;9.20;;;15.10;99.30;;;;;;4861984;29;20036;-76
2021/07/23 00:35:15;;;;;;;10.77;9.25;;;15.10;99.30;;;;;;4895466;29;20143;-74
2021/07/23 00:37:41;;;;;;;11.90;8.00;;;15.10;99.40;;;;;;4910386;29;20040;-76
2021/07/23 00:40:08;;;;;;;10.50;8.48;;;15.10;99.30;;;;;;4874976;29;20126;-76
2021/07/23 00:42:42;;;;;;;11.15;7.93;;;15.10;99.30;;;;;;4880600;29;20042;-76
2021/07/23 00:45:12;;;;;;;12.20;8.93;;;15.20;99.50;;;;;;4885449;29;20082;-75
2021/07/23 00:47:45;;;;;;;8.30;6.63;;;15.20;99.50;;;;;;4893253;29;20420;-75
2021/07/23 00:50:12;;;;;;;10.15;8.52;;;15.20;99.40;;;;;;4908902;29;20130;-75
2021/07/23 00:52:39;;;;;;;12.15;8.63;;;15.30;99.40;;;;;;4893540;29;20051;-75
2021/07/23 00:55:07;;;;;;;10.50;8.55;;;15.30;99.40;;;;;;4892419;29;20036;-75
2021/07/23 00:57:35;;;;;;;10.02;8.32;;;15.30;99.40;;;;;;4892887;29;20489;-75
2021/07/23 01:00:02;;;;;;;9.30;8.30;;;15.30;99.40;;;;;;4891061;29;20040;-75
2021/07/23 01:02:29;;;;;;;13.32;9.40;;;15.30;99.40;;;;;;4912908;29;20104;-75
2021/07/23 01:04:55;;;;;;;9.57;8.48;;;15.40;99.40;;;;;;4908701;29;20083;-76
2021/07/23 01:07:21;;;;;;;10.10;7.35;;;15.40;99.50;;;;;;4877723;29;20151;-76
2021/07/23 01:09:48;;;;;;;11.35;8.05;;;15.40;99.40;;;;;;4911517;29;20367;-76
2021/07/23 01:12:14;;;;;;;9.95;8.63;;;15.40;99.40;;;;;;4880184;29;20408;-76
2021/07/23 01:14:42;;;;;;;11.32;9.05;;;15.40;99.50;;;;;;4908489;29;20114;-76
2021/07/23 01:17:31;;;;;;;11.85;8.73;;;15.50;99.40;;;;;;4912312;29;20047;-76
2021/07/23 01:20:09;;;;;;;12.52;9.20;;;15.50;99.70;;;;;;4873574;29;20103;-81
2021/07/23 01:22:40;;;;;;;10.63;8.63;;;15.50;99.50;;;;;;4911686;29;20469;-81
2021/07/23 01:25:07;;;;;;;10.07;9.00;;;15.50;99.70;;;;;;4909590;29;20032;-81
2021/07/23 01:27:40;;;;;;;12.02;8.50;;;15.40;99.80;;;;;;4895745;29;20444;-81
2021/07/23 01:30:08;;;;;;;11.45;7.82;;;15.40;99.90;;;;;;4908003;29;20047;-80
2021/07/23 01:32:35;;;;;;;10.32;8.60;;;15.50;99.90;;;;;;4908776;29;20044;-81
2021/07/23 01:35:01;;;;;;;10.27;7.72;;;15.50;99.90;;;;;;4890414;29;20040;-82
2021/07/23 01:37:27;;;;;;;9.10;7.47;;;15.50;99.90;;;;;;4889917;29;20563;-82
2021/07/23 01:39:54;;;;;;;8.98;7.68;;;15.60;99.90;;;;;;4892189;29;20616;-82
2021/07/23 01:42:20;;;;;;;10.63;8.65;;;15.60;99.90;;;;;;4911317;29;20146;-82
2021/07/23 01:44:46;;;;;;;12.20;10.10;;;15.60;99.90;;;;;;4912834;29;20658;-82
2021/07/23 01:47:12;;;;;;;12.90;9.60;;;15.60;99.90;;;;;;4911017;29;20051;-82
2021/07/23 01:49:37;;;;;;;13.25;10.27;;;15.60;99.90;;;;;;4888950;29;20423;-83
2021/07/23 01:52:06;;;;;;;13.48;10.57;;;15.60;99.90;;;;;;4882033;29;20064;-82
2021/07/23 01:54:32;;;;;;;11.68;10.05;;;15.60;99.90;;;;;;4911847;29;20047;-82
2021/07/23 01:56:58;;;;;;;12.48;10.73;;;15.60;99.90;;;;;;4910202;29;20299;-82
2021/07/23 01:59:24;;;;;;;14.88;11.57;;;15.60;99.90;;;;;;4877403;29;20040;-82
2021/07/23 02:01:53;;;;;;;15.68;11.82;;;15.60;99.90;;;;;;4894717;29;20043;-82
2021/07/23 02:04:19;;;;;;;11.48;9.55;;;15.60;99.90;;;;;;4887877;29;20144;-82
2021/07/23 02:06:45;;;;;;;13.32;10.07;;;15.60;99.90;;;;;;4873801;29;20056;-83
2021/07/23 02:09:10;;;;;;;12.98;10.45;;;15.60;99.90;;;;;;4890671;29;20087;-82
2021/07/23 02:11:36;;;;;;;13.45;9.75;;;15.60;99.90;;;;;;4837989;29;20104;-76
2021/07/23 02:14:06;;;;;;;11.07;8.95;;;15.60;99.90;;;;;;4914685;29;20051;-76
2021/07/23 02:16:33;;;;;;;13.18;10.68;;;15.70;99.90;;;;;;4890740;29;20036;-76
2021/07/23 02:18:59;;;;;;;14.25;10.48;;;15.70;99.90;;;;;;4892418;29;20547;-75
2021/07/23 02:21:28;;;;;;;13.38;10.35;;;15.70;99.90;;;;;;4893300;29;20040;-76
2021/07/23 02:23:55;;;;;;;15.85;10.98;;;15.70;99.90;;;;;;4908274;29;20111;-76
2021/07/23 02:26:22;;;;;;;14.60;11.30;;;15.70;99.90;;;;;;4887427;29;20554;-76
2021/07/23 02:28:49;;;;;;;13.82;10.73;;;15.70;99.90;;;;;;4892102;29;20048;-76
2021/07/23 02:31:18;;;;;;;12.55;10.48;;;15.70;99.90;;;;;;4889236;29;20036;-76
2021/07/23 02:33:45;;;;;;;16.43;11.43;;;15.70;99.90;;;;;;4872774;29;20044;-75
2021/07/23 02:36:12;;;;;;;15.57;11.93;;;15.70;99.90;;;;;;4886599;29;20310;-76
2021/07/23 02:38:39;;;;;;;17.10;11.38;;;15.70;99.90;;;;;;4888872;29;20091;-76
2021/07/23 02:41:05;;;;;;;16.63;11.05;;;15.70;99.90;;;;;;4861371;29;20072;-74
2021/07/23 02:43:31;;;;;;;15.43;11.85;;;15.70;99.90;;;;;;4913375;29;20108;-76
2021/07/23 02:45:58;;;;;;;19.52;12.50;;;15.70;99.90;;;;;;4893101;29;20127;-76
2021/07/23 02:48:24;;;;;;;17.08;12.90;;;15.70;99.90;;;;;;4876343;29;20044;-76
2021/07/23 02:50:50;;;;;;;13.55;11.07;;;15.70;99.90;;;;;;4861118;29;20452;-76
2021/07/23 02:53:19;;;;;;;16.08;11.88;;;15.70;99.90;;;;;;4906808;29;20036;-76
2021/07/23 02:55:45;;;;;;;16.92;12.30;;;15.70;99.90;;;;;;4890072;29;20051;-76
2021/07/23 02:58:11;;;;;;;14.85;12.02;;;15.70;99.90;;;;;;4891111;29;20051;-76
2021/07/23 03:00:37;;;;;;;13.38;11.23;;;15.80;99.90;;;;;;4890373;29;20044;-76
2021/07/23 03:03:04;;;;;;;16.85;11.60;;;15.80;99.90;;;;;;4909608;29;20071;-76
2021/07/23 03:05:31;;;;;;;16.13;12.40;;;15.80;99.90;;;;;;4887385;29;20055;-76
2021/07/23 03:07:57;;;;;;;15.10;11.85;;;15.80;99.90;;;;;;4891366;29;20047;-76
2021/07/23 03:10:23;;;;;;;15.05;12.27;;;15.80;99.90;;;;;;4887931;29;20052;-76
2021/07/23 03:12:49;;;;;;;15.32;12.02;;;15.80;99.90;;;;;;4892780;29;20133;-76
2021/07/23 03:15:18;;;;;;;16.33;12.70;;;15.80;99.90;;;;;;4913445;29;20040;-76
2021/07/23 03:17:44;;;;;;;16.40;13.07;;;15.90;99.90;;;;;;4906950;29;20070;-76
2021/07/23 03:20:10;;;;;;;14.93;12.02;;;15.90;99.90;;;;;;4859463;29;20496;-76
2021/07/23 03:22:36;;;;;;;16.23;12.40;;;15.90;99.90;;;;;;4890241;29;20044;-76
2021/07/23 03:25:03;;;;;;;16.05;12.90;;;15.90;99.90;;;;;;4859756;29;20499;-76
2021/07/23 03:27:29;;;;;;;15.70;12.20;;;15.90;99.90;;;;;;4889739;29;21204;-77
2021/07/23 03:29:55;;;;;;;16.17;11.80;;;15.90;99.90;;;;;;4908529;29;20040;-75
2021/07/23 03:32:21;;;;;;;14.77;12.95;;;15.90;99.90;;;;;;4873873;29;20045;-76
2021/07/23 03:34:48;;;;;;;15.77;12.60;;;16.00;99.90;;;;;;4877073;29;20047;-76
2021/07/23 03:37:14;;;;;;;16.92;12.18;;;16.00;99.90;;;;;;4860439;29;20064;-76
2021/07/23 03:39:40;;;;;;;16.08;12.48;;;16.00;99.90;;;;;;4890010;29;20083;-76
2021/07/23 03:42:06;;;;;;;14.85;11.70;;;16.00;99.90;;;;;;4887808;29;20126;-76
2021/07/23 03:44:32;;;;;;;14.60;11.43;;;16.00;99.90;;;;;;4861412;29;20157;-76
2021/07/23 03:46:58;;;;;;;16.17;12.35;;;16.00;99.90;;;;;;4863569;29;20052;-76
2021/07/23 03:49:30;;;;;;;12.73;10.38;;;16.00;99.90;;;;;;4849486;29;20071;-76
2021/07/23 03:51:58;;;;;;;14.82;11.02;;;16.00;99.90;;;;;;4913530;29;20044;-76
2021/07/23 03:54:24;;;;;;;14.10;9.85;;;16.00;99.90;;;;;;4907911;29;20428;-76
2021/07/23 03:56:50;;;;;;;14.35;10.60;;;16.00;99.90;;;;;;4878609;29;20135;-76
2021/07/23 03:59:16;;;;;;;12.35;9.23;;;16.00;99.90;;;;;;4878599;29;20183;-80
2021/07/23 04:01:42;;;;;;;14.52;10.40;;;16.00;99.90;;;;;;4891201;29;20081;-81
2021/07/23 04:04:10;;;;;;;12.55;9.07;;;16.00;99.90;;;;;;4871068;29;20048;-81
2021/07/23 04:06:35;;;;;;;13.38;9.88;;;16.10;99.90;;;;;;4875415;29;20059;-81
2021/07/23 04:09:02;;;;;;;12.38;8.65;;;16.10;99.90;;;;;;4909455;29;20111;-81
2021/07/23 04:11:37;;;;;;;13.90;7.78;;;16.10;99.90;;;;;;4912338;29;20059;-81
2021/07/23 04:14:03;;;;;;;9.90;7.78;;;16.10;99.90;;;;;;4873889;29;20450;-76
2021/07/23 04:16:31;;;;;;;14.10;8.80;;;16.10;99.90;;;;;;4885662;29;20052;-76
2021/07/23 04:18:58;;;;;;;9.88;7.68;;;16.20;99.90;;;;;;4868494;29;20040;-75
2021/07/23 04:21:23;;;;;;;12.40;9.23;;;16.20;99.90;;;;;;4887003;29;20041;-76
2021/07/23 04:23:49;;;;;;;11.13;8.88;;;16.20;99.90;;;;;;4908379;29;20588;-76
2021/07/23 04:26:15;;;;;;;12.43;8.73;;;16.20;99.90;;;;;;4883287;29;20051;-76
2021/07/23 04:28:41;;;;;;;10.60;8.32;;;16.20;99.90;;;;;;4894571;29;20056;-75
2021/07/23 04:31:07;;;;;;;13.10;9.23;;;16.20;99.90;;;;;;4894989;29;20048;-76
2021/07/23 04:33:32;;;;;;;12.18;8.75;;;16.20;99.90;;;;;;4904471;29;20044;-76
2021/07/23 04:35:58;;;;;;;10.45;8.80;;;16.20;99.90;;;;;;4910549;29;20806;-77
2021/07/23 04:38:24;;;;;;;12.05;8.32;;;16.20;99.90;;;;;;4904995;29;20045;-76
2021/07/23 04:40:50;;;;;;;12.23;9.68;;;16.20;99.90;;;;;;4909279;29;20052;-76
2021/07/23 04:43:16;;;;;;;11.35;8.55;;;16.20;99.90;;;;;;4909560;29;20111;-77
2021/07/23 04:45:42;;;;;;;13.02;8.77;;;16.20;99.90;;;;;;4885511;29;20068;-76
2021/07/23 04:48:09;;;;;;;12.85;8.93;;;16.20;99.90;;;;;;4901137;29;20565;-76
2021/07/23 04:50:35;;;;;;;12.10;8.38;;;16.20;99.90;;;;;;4906073;29;20047;-77
2021/07/23 04:53:00;;;;;;;11.57;8.30;;;16.30;99.90;;;;;;4878129;29;20040;-77
2021/07/23 04:55:27;;;;;;;12.40;8.07;;;16.30;99.50;;;;;;4894295;29;20509;-77
2021/07/23 04:57:53;;;;;;;9.98;8.00;;;16.30;99.40;;;;;;4893248;29;20062;-77
2021/07/23 05:00:21;;;;;;;11.00;7.53;;;16.30;99.30;;;;;;4857807;29;20060;-77
2021/07/23 05:02:54;;;;;;;9.93;7.80;;;16.30;99.40;;;;;;4888290;29;20051;-77
2021/07/23 05:05:21;;;;;;;11.93;7.75;;;16.30;99.20;;;;;;4878381;29;20048;-77
2021/07/23 05:07:47;;;;;;;13.07;8.55;;;16.30;98.90;;;;;;4895045;29;20048;-77
2021/07/23 05:10:15;;;;;;;9.70;6.78;;;16.30;98.70;;;;;;4898230;29;20131;-76
2021/07/23 05:12:42;;;;;;;11.48;8.07;;;16.30;98.80;;;;;;4910288;29;20167;-76
2021/07/23 05:15:10;;;;;;;11.27;7.80;;;16.30;98.70;;;;;;4903297;29;20075;-77
2021/07/23 05:17:37;;;;;;;11.45;7.90;;;16.30;98.60;;;;;;4883569;29;20079;-76
2021/07/23 05:20:04;;;;;;;11.90;7.35;;;16.30;98.70;;;;;;4916823;29;20123;-77
2021/07/23 05:22:31;;;;;;;12.27;7.55;;;16.30;98.60;;;;;;4916777;29;20064;-77
2021/07/23 05:24:58;;;;;;;10.45;7.63;;;16.30;98.50;;;;;;4897340;29;20052;-83
2021/07/23 05:27:24;;;;;;;9.20;7.32;;;16.30;98.70;;;;;;4879834;29;20051;-82
2021/07/23 05:29:51;;;;;;;9.80;6.78;;;16.30;98.60;;;;;;4913149;29;20123;-82
2021/07/23 05:32:18;;;;;;;10.82;7.68;;;16.30;98.80;;;;;;4907123;29;20058;-82
2021/07/23 05:34:43;;;;;;;11.48;7.45;;;16.40;98.80;;;;;;4897049;29;20131;-82
2021/07/23 05:37:09;;;;;;;11.15;8.05;;;16.40;98.90;;;;;;4896541;29;20146;-77
2021/07/23 05:39:39;;;;;;;10.85;7.97;;;16.40;98.90;;;;;;4892245;29;20072;-76
2021/07/23 05:42:05;;;;;;;10.70;7.70;;;16.40;98.80;;;;;;4900408;29;20095;-77
2021/07/23 05:44:31;;;;;;;10.48;7.35;;;16.40;98.80;;;;;;4893877;29;20131;-77
2021/07/23 05:47:01;;;;;;;12.38;7.93;;;16.40;98.50;;;;;;4902608;29;20138;-77
2021/07/23 05:49:27;;;;;;;12.80;8.93;;;16.40;98.40;;;;;;4893516;29;20044;-76
2021/07/23 05:51:53;;;;;;;12.45;8.10;;;16.40;98.60;;;;;;4915299;29;20099;-76
2021/07/23 05:54:20;;;;;;;11.35;8.38;;;16.50;98.60;;;;;;4872230;29;20064;-77
2021/07/23 05:56:46;;;;;;;9.60;6.95;;;16.50;98.70;;;;;;4896152;29;20155;-76
2021/07/23 05:59:12;;;;;;;10.27;6.95;;;16.50;98.90;;;;;;4888063;29;20040;-77
2021/07/23 06:01:41;;;;;;;11.32;8.27;;;16.50;99.00;;;;;;4880567;29;20052;-77
2021/07/23 06:04:08;;;;;;;12.95;8.73;;;16.50;99.00;;;;;;4897745;29;20100;-76
2021/07/23 06:06:34;;;;;;;13.02;6.63;;;16.60;99.10;;;;;;4895851;29;20830;-77
2021/07/23 06:09:01;;;;;;;13.40;7.90;;;16.60;99.20;;;;;;4887895;29;20052;-76
2021/07/23 06:11:27;;;;;;;11.50;8.15;;;16.60;99.10;;;;;;4909841;29;20123;-75
2021/07/23 06:13:53;;;;;;;12.05;8.95;;;16.60;99.00;;;;;;4911538;29;20063;-76
2021/07/23 06:16:19;;;;;;;15.27;8.70;;;16.60;99.00;;;;;;4918201;29;20495;-76
2021/07/23 06:18:45;;;;;;;10.70;8.48;;;16.60;98.90;;;;;;4893750;29;20480;-75
2021/07/23 06:21:13;;;;;;;12.95;8.82;;;16.70;98.90;;;;;;4895898;29;20051;-78
2021/07/23 06:23:39;;;;;;;10.75;9.07;;;16.60;98.90;;;;;;4868963;29;20096;-75
2021/07/23 06:26:06;;;;;;;14.95;10.10;;;16.60;98.90;;;;;;4892049;29;20047;-76
2021/07/23 06:28:32;;;;;;;13.88;8.93;;;16.70;99.40;;;;;;4874202;29;20040;-76
2021/07/23 06:31:00;;;;;;;13.55;9.68;;;16.70;99.00;;;;;;4892879;29;20062;-75
2021/07/23 06:33:26;;;;;;;13.05;9.70;;;16.70;98.70;;;;;;4879112;29;20472;-76
2021/07/23 06:35:52;;;;;;;13.60;9.48;;;16.70;98.60;;;;;;4906770;29;20649;-76
2021/07/23 06:38:18;;;;;;;11.25;8.77;;;16.70;98.60;;;;;;4873540;29;20048;-76
2021/07/23 06:40:43;;;;;;;12.68;9.07;;;16.70;98.80;;;;;;4907666;29;20036;-76
2021/07/23 06:43:09;;;;;;;11.60;9.20;;;16.70;98.80;;;;;;4862486;29;20048;-76
2021/07/23 06:45:35;;;;;;;12.70;9.48;;;16.80;98.90;;;;;;4889049;29;20040;-76
2021/07/23 06:48:02;;;;;;;13.52;8.93;;;16.80;98.80;;;;;;4889367;29;20115;-75
2021/07/23 06:50:31;;;;;;;12.18;9.10;;;16.80;98.70;;;;;;4869297;29;20044;-75
2021/07/23 06:52:57;;;;;;;14.63;9.57;;;16.80;98.60;;;;;;4880637;29;20067;-76
2021/07/23 06:55:23;;;;;;;12.68;9.68;;;16.80;98.70;;;;;;4884509;29;20059;-75
2021/07/23 06:57:49;;;;;;;12.43;9.75;;;16.80;98.90;;;;;;4885495;29;20040;-75
2021/07/23 07:00:15;;;;;;;15.23;9.75;;;16.80;98.70;;;;;;4874153;29;20551;-75
2021/07/23 07:02:41;;;;;;;12.77;9.30;;;16.80;98.60;;;;;;4889175;29;20047;-75
2021/07/23 07:05:07;;;;;;;14.48;9.40;;;16.80;98.60;;;;;;4903715;29;20514;-76
2021/07/23 07:07:33;;;;;;;10.80;8.25;;;16.90;98.50;;;;;;4878415;29;20171;-76
2021/07/23 07:09:59;;;;;;;12.95;8.85;;;16.80;98.40;;;;;;4867188;29;20586;-75
2021/07/23 07:12:25;;;;;;;19.70;9.85;;;16.90;98.40;;;;;;4916994;29;20130;-76
2021/07/23 07:14:51;;;;;;;12.82;10.40;;;16.90;98.30;;;;;;4909050;29;20050;-76
2021/07/23 07:17:18;;;;;;;15.35;11.18;;;16.90;98.00;;;;;;4893674;29;20072;-76
2021/07/23 07:19:45;;;;;;;13.10;11.00;;;17.00;98.20;;;;;;4904883;29;20056;-75
2021/07/23 07:22:11;;;;;;;14.70;11.20;;;17.00;98.20;;;;;;4882941;29;20044;-75
2021/07/23 07:24:37;;;;;;;13.82;11.13;;;17.00;98.30;;;;;;4872278;29;20047;-75
2021/07/23 07:27:03;;;;;;;13.82;11.68;;;17.00;98.10;;;;;;4865659;29;20041;-81
2021/07/23 07:29:29;;;;;;;17.92;14.85;;;17.00;98.20;;;;;;4909709;29;20057;-80
2021/07/23 07:31:55;;;;;;;20.05;17.25;;;17.00;98.10;;;;;;4908077;29;20562;-81
2021/07/23 07:34:20;;;;;;;17.55;15.63;;;17.10;97.90;;;;;;4858031;29;20069;-81
2021/07/23 07:36:46;;;;;;;17.60;14.00;;;17.00;97.40;;;;;;4893369;29;20056;-81
2021/07/23 07:39:13;;;;;;;18.80;14.52;;;17.10;96.60;;;;;;4878228;29;20127;-80
2021/07/23 07:41:39;;;;;;;17.27;15.48;;;17.00;96.60;;;;;;4880142;29;20091;-81
2021/07/23 07:44:05;;;;;;;18.33;15.40;;;17.00;96.40;;;;;;4883968;29;20056;-81
2021/07/23 07:46:31;;;;;;;16.85;15.15;;;17.10;96.30;;;;;;4866260;29;20111;-81
2021/07/23 07:48:58;;;;;;;18.85;15.25;;;17.10;96.50;;;;;;4901488;29;20131;-81
2021/07/23 07:51:24;;;;;;;17.23;15.43;;;17.00;96.50;;;;;;4885619;29;20469;-80
2021/07/23 07:53:50;;;;;;;16.50;14.80;;;17.10;96.30;;;;;;4893034;29;20056;-80
2021/07/23 07:56:15;;;;;;;18.50;16.60;;;17.10;96.00;;;;;;4874624;29;20044;-79
2021/07/23 07:58:42;;;;;;;15.80;13.82;;;17.00;96.40;;;;;;4874571;29;20044;-80
2021/07/23 08:01:11;;;;;;;16.52;14.70;;;17.00;96.70;;;;;;4897897;29;20135;-79
2021/07/23 08:03:37;;;;;;;17.77;15.90;;;17.00;96.90;;;;;;4891233;29;20048;-82
2021/07/23 08:06:10;;;;;;;18.92;15.60;;;17.00;96.80;;;;;;4892351;29;20048;-80
2021/07/23 08:08:36;;;;;;;19.85;17.27;;;17.00;96.90;;;;;;4889634;29;20154;-80
2021/07/23 08:11:02;;;;;;;22.13;17.15;;;17.00;97.00;;;;;;4857651;29;20616;-80
2021/07/23 08:13:31;;;;;;;19.38;16.50;;;17.00;96.80;;;;;;4870208;29;20519;-79
2021/07/23 08:15:58;;;;;;;18.17;15.60;;;17.10;96.80;;;;;;4882330;29;20041;-83
2021/07/23 08:18:24;;;;;;;17.63;15.80;;;17.00;96.80;;;;;;4876484;29;20040;-80
2021/07/23 08:20:51;;;;;;;17.25;14.50;;;16.90;97.00;;;;;;4908348;29;20044;-80
2021/07/23 08:23:22;;;;;;;15.27;12.73;;;17.00;97.20;;;;;;4870091;29;20116;-81
2021/07/23 08:25:48;;;;;;;18.80;14.95;;;17.00;97.40;;;;;;4871071;29;20047;-81
2021/07/23 08:28:16;;;;;;;17.85;14.07;;;17.00;97.50;;;;;;4917855;29;20036;-75
2021/07/23 08:30:42;;;;;;;16.67;13.35;;;17.00;97.60;;;;;;4893538;29;20417;-74
2021/07/23 08:33:08;;;;;;;17.45;13.70;;;17.10;97.60;;;;;;4901750;29;20048;-75
2021/07/23 08:35:35;;;;;;;14.05;12.55;;;17.10;97.50;;;;;;4924053;29;20390;-74
2021/07/23 08:38:01;;;;;;;18.42;14.00;;;17.10;97.40;;;;;;4893734;29;20060;-73
2021/07/23 08:40:28;;;;;;;16.98;13.15;;;17.20;97.50;;;;;;4919019;29;20039;-73
2021/07/23 08:42:57;;;;;;;14.88;12.70;;;17.30;97.50;;;;;;4892896;29;20062;-74
2021/07/23 08:45:23;;;;;;;15.80;13.48;;;17.30;97.20;;;;;;4906599;29;20040;-74
2021/07/23 08:47:49;;;;;;;19.45;14.43;;;17.30;97.20;;;;;;4877249;29;20101;-74
2021/07/23 08:50:18;;;;;;;16.67;13.20;;;17.30;97.10;;;;;;4908657;29;20048;-75
2021/07/23 08:52:45;;;;;;;13.80;11.68;;;17.40;97.00;;;;;;4865076;29;20052;-75
2021/07/23 08:55:14;;;;;;;15.25;11.48;;;17.50;96.80;;;;;;4896669;29;20134;-75
2021/07/23 08:57:41;;;;;;;14.30;10.52;;;17.50;96.80;;;;;;4890234;29;20039;-76
2021/07/23 09:00:21;;;;;;;12.40;10.63;;;17.60;96.80;;;;;;4884027;29;20143;-74
2021/07/23 09:03:03;;;;;;;12.27;10.43;;;17.70;96.40;;;;;;4888929;29;20048;-75
2021/07/23 09:05:38;;;;;;;14.73;11.15;;;17.70;96.00;;;;;;4890135;29;20084;-75
2021/07/23 09:08:15;;;;;;;12.00;9.45;;;17.80;95.90;;;;;;4905119;29;20048;-75
2021/07/23 09:10:43;;;;;;;12.05;9.20;;;17.80;95.90;;;;;;4894432;29;20036;-75
2021/07/23 09:13:11;;;;;;;13.13;9.40;;;17.90;95.80;;;;;;4877270;29;20516;-75
2021/07/23 09:15:42;;;;;;;11.18;9.35;;;17.90;95.60;;;;;;4893327;29;20487;-76
2021/07/23 09:18:27;;;;;;;10.73;8.65;;;18.00;95.40;;;;;;4879683;29;20048;-75
2021/07/23 09:20:56;;;;;;;10.25;8.40;;;18.10;95.20;;;;;;4910782;29;20044;-76
2021/07/23 09:23:40;;;;;;;10.32;8.38;;;18.20;95.00;;;;;;4894059;29;20127;-75
2021/07/23 09:26:18;;;;;;;10.25;8.23;;;18.30;94.80;;;;;;4858585;29;20052;-75
2021/07/23 09:28:46;;;;;;;11.05;8.50;;;18.30;94.20;;;;;;4846409;29;20043;-76
2021/07/23 09:31:22;;;;;;;10.15;7.80;;;18.40;94.40;;;;;;4911896;29;20491;-75
2021/07/23 09:33:53;;;;;;;12.57;8.10;;;18.40;94.00;;;;;;4870768;29;20075;-75
2021/07/23 09:36:19;;;;;;;11.60;8.05;;;18.50;94.10;;;;;;4895055;29;20036;-75
2021/07/23 09:38:46;;;;;;;10.18;8.13;;;18.60;94.30;;;;;;4863050;29;20147;-75
2021/07/23 09:41:27;;;;;;;13.10;8.07;;;18.80;94.20;;;;;;4863450;29;20049;-75
2021/07/23 09:44:12;;;;;;;12.85;9.05;;;18.80;93.90;;;;;;4889403;29;20044;-76
2021/07/23 09:46:45;;;;;;;12.32;9.45;;;19.00;94.20;;;;;;4873785;29;20534;-76
2021/07/23 09:49:21;;;;;;;11.65;8.75;;;19.10;94.30;;;;;;4882514;29;20045;-75
2021/07/23 09:51:49;;;;;;;10.20;7.70;;;19.20;93.80;;;;;;4875146;29;20041;-74
2021/07/23 09:54:15;;;;;;;12.25;9.02;;;19.30;93.60;;;;;;4889669;29;20504;-75
2021/07/23 09:56:42;;;;;;;9.18;7.10;;;19.30;92.90;;;;;;4883496;29;20172;-75
2021/07/23 09:59:15;;;;;;;10.63;8.80;;;19.30;93.00;;;;;;4886304;29;20048;-75
2021/07/23 10:01:42;;;;;;;11.55;8.93;;;19.40;93.40;;;;;;4872708;29;20556;-75
2021/07/23 10:04:20;;;;;;;8.88;7.30;;;19.50;93.30;;;;;;4847668;29;20101;-75
2021/07/23 10:07:00;;;;;;;10.18;7.55;;;19.50;93.20;;;;;;4879981;29;20817;-75
2021/07/23 10:09:29;;;;;;;9.32;8.20;;;19.60;92.70;;;;;;4880545;29;20098;-75
2021/07/23 10:11:58;;;;;;;11.35;8.77;;;19.60;92.80;;;;;;4874209;29;20040;-77
2021/07/23 10:14:27;;;;;;;12.10;9.55;;;19.60;92.70;;;;;;4863029;29;20704;-74
2021/07/23 10:16:53;;;;;;;10.32;9.23;;;19.60;92.20;;;;;;4883557;29;20059;-75
2021/07/23 10:19:22;;;;;;;9.90;7.68;;;19.50;92.40;;;;;;4892678;29;20040;-75
2021/07/23 10:21:53;;;;;;;10.93;8.30;;;19.60;92.70;;;;;;4866854;29;20040;-75
2021/07/23 10:24:19;;;;;;;13.18;8.63;;;19.70;92.50;;;;;;4880524;29;20041;-76
2021/07/23 10:26:45;;;;;;;9.38;7.80;;;19.80;92.30;;;;;;4882162;29;20123;-78
2021/07/23 10:29:12;;;;;;;11.88;7.43;;;19.90;91.90;;;;;;4874951;29;20981;-81
2021/07/23 10:31:39;;;;;;;11.63;7.95;;;19.90;91.90;;;;;;4896032;29;20468;-82
2021/07/23 10:34:06;;;;;;;11.75;8.43;;;20.10;91.90;;;;;;4868870;29;20597;-81
2021/07/23 10:36:32;;;;;;;9.52;7.57;;;20.30;91.30;;;;;;4876094;29;20064;-82
2021/07/23 10:39:17;;;;;;;10.07;7.03;;;20.40;91.20;;;;;;4907363;29;20048;-82
2021/07/23 10:41:46;;;;;;;7.50;6.03;;;20.50;91.00;;;;;;4897289;29;20049;-85
2021/07/23 10:44:33;;;;;;;8.25;6.40;;;20.60;89.70;;;;;;4890305;29;20476;-75
2021/07/23 10:46:59;;;;;;;7.63;6.43;;;20.60;89.70;;;;;;4904279;29;20130;-76
2021/07/23 10:49:31;;;;;;;9.75;6.82;;;20.50;89.50;;;;;;4888248;29;20040;-75
2021/07/23 10:52:02;;;;;;;8.55;5.38;;;20.50;90.00;;;;;;4894372;29;20119;-76
2021/07/23 10:54:33;;;;;;;9.48;6.47;;;20.60;90.30;;;;;;4900249;29;20084;-77
2021/07/23 10:57:01;;;;;;;8.25;5.82;;;20.60;89.40;;;;;;4870238;29;20311;-75
2021/07/23 10:59:42;;;;;;;7.82;6.22;;;20.50;89.20;;;;;;4892361;29;20048;-76
2021/07/23 11:02:11;;;;;;;10.55;6.32;;;20.60;88.00;;;;;;4899114;29;20282;-75
2021/07/23 11:04:40;;;;;;;7.57;6.05;;;20.60;89.80;;;;;;4887254;29;20526;-76
2021/07/23 11:07:10;;;;;;;8.98;6.20;;;20.70;89.30;;;;;;4910508;29;20077;-75
2021/07/23 11:09:37;;;;;;;;;;;20.80;89.50;;;;;;4898206;29;20045;-75
2021/07/23 11:12:23;;;;;;;9.32;6.57;;;20.90;90.50;;;;;;4899743;29;19923;-76
2021/07/23 11:15:05;;;;;;;11.15;6.80;;;20.90;89.50;;;;;;4886498;29;20046;-75
2021/07/23 11:17:32;;;;;;;9.13;6.32;;;20.80;86.10;;;;;;4897764;29;20075;-75
2021/07/23 11:20:02;;;;;;;7.95;5.45;;;20.80;86.00;;;;;;4912678;29;20050;-75
2021/07/23 11:22:33;;;;;;;9.07;6.28;;;20.70;86.70;;;;;;4894006;29;20894;-76
2021/07/23 11:25:11;;;;;;;7.55;5.60;;;20.70;86.50;;;;;;4909042;29;20038;-76
2021/07/23 11:27:38;;;;;;;8.65;6.35;;;20.70;85.50;;;;;;4912377;29;20043;-76
2021/07/23 11:30:25;;;;;;;9.43;6.47;;;20.70;85.10;;;;;;4909647;29;20553;-75
2021/07/23 11:32:54;;;;;;;7.65;6.20;;;20.70;85.70;;;;;;4877727;29;20092;-75
2021/07/23 11:35:24;;;;;;;8.05;5.97;;;20.80;84.90;;;;;;4891555;29;20058;-74
2021/07/23 11:37:50;;;;;;;8.50;5.82;;;20.90;84.80;;;;;;4879577;29;20530;-75
2021/07/23 11:40:18;;;;;;;8.90;5.55;;;20.90;84.50;;;;;;4900298;29;20463;-77
2021/07/23 11:42:54;;;;;;;8.20;5.18;;;21.00;84.40;;;;;;4907219;29;20059;-76
2021/07/23 11:45:22;;;;;;;9.73;5.93;;;21.20;83.40;;;;;;4890972;29;20606;-75
2021/07/23 11:47:50;;;;;;;8.80;6.03;;;21.30;81.90;;;;;;4880226;29;20045;-75
2021/07/23 11:50:18;;;;;;;9.73;6.07;;;21.30;81.80;;;;;;4879515;29;20398;-76
2021/07/23 11:52:46;;;;;;;8.00;5.25;;;21.50;83.10;;;;;;4868378;29;20067;-76
2021/07/23 11:55:14;;;;;;;9.77;6.68;;;21.50;83.10;;;;;;4883026;29;20044;-75
2021/07/23 11:57:45;;;;;;;7.40;5.65;;;21.60;83.10;;;;;;4892478;29;20455;-75
2021/07/23 12:00:21;;;;;;;11.80;5.85;;;21.50;82.40;;;;;;4909575;29;20507;-76
2021/07/23 12:02:47;;;;;;;7.32;5.65;;;21.50;83.10;;;;;;4890939;29;20044;-76
2021/07/23 12:05:17;;;;;;;10.00;6.03;;;21.60;84.20;;;;;;4892074;29;20044;-77
2021/07/23 12:07:55;;;;;;;8.40;5.30;;;21.60;83.30;;;;;;4876117;29;20072;-77
2021/07/23 12:10:21;;;;;;;7.78;5.45;;;21.60;83.90;;;;;;4882524;29;20052;-78
2021/07/23 12:12:47;;;;;;;7.05;5.90;;;21.60;84.70;;;;;;4893898;29;20043;-77
2021/07/23 12:15:14;;;;;;;8.95;6.05;;;21.60;82.40;;;;;;4880709;29;20407;-76
2021/07/23 12:17:49;;;;;;;9.73;5.82;;;21.40;81.30;;;;;;4895406;29;20044;-76
2021/07/23 12:20:16;;;;;;;9.23;6.22;;;21.40;84.00;;;;;;4895588;29;20762;-75
2021/07/23 12:22:58;;;;;;;8.85;6.28;;;21.30;82.50;;;;;;4845396;29;20306;-76
2021/07/23 12:25:27;;;;;;;8.25;6.38;;;21.20;81.80;;;;;;4902350;29;20119;-76
2021/07/23 12:28:13;;;;;;;8.38;6.28;;;21.10;85.10;;;;;;4910360;29;20476;-76
2021/07/23 12:30:43;;;;;;;9.10;7.18;;;21.00;85.40;;;;;;4879184;29;20143;-76
2021/07/23 12:33:13;;;;;;;;;;;21.00;80.60;;;;;;4910254;29;20491;-76
2021/07/23 12:35:43;;;;;;;9.68;7.43;;;20.90;87.10;;;;;;4910300;29;19923;-76
2021/07/23 12:38:11;;;;;;;8.88;7.10;;;20.80;84.20;;;;;;4876295;29;21325;-76
2021/07/23 12:40:51;;;;;;;10.00;6.20;;;20.90;83.50;;;;;;4906098;29;20108;-77